Time;durP1;ratioP1;P1;durP2;ratioP2;P2;SDS_P1;SDS_P2;PMS_P1;PMS_P2;Temp;Humidity;BMP_temperature;BMP_pressure;BME280_temperature;BME280_humidity;BME280_pressure;Samples;Min_cycle;Max_cycle;Signal;HPM_P1;HPM_P2
2022/06/27 00:01:50;;;;;;;2.03;1.67;;;17.60;99.90;;;;;;5058176;28;20634;-80
2022/06/27 00:04:15;;;;;;;2.43;1.60;;;17.60;99.90;;;;;;5040088;28;20218;-80
2022/06/27 00:06:41;;;;;;;2.30;1.70;;;17.60;99.90;;;;;;5040285;28;20179;-79
2022/06/27 00:09:07;;;;;;;2.83;1.90;;;17.50;99.90;;;;;;5058008;28;20259;-81
2022/06/27 00:11:32;;;;;;;3.00;2.00;;;17.50;99.90;;;;;;5058062;28;20180;-79
2022/06/27 00:13:58;;;;;;;2.97;1.90;;;17.50;99.90;;;;;;5058738;28;20180;-80
2022/06/27 00:16:23;;;;;;;2.53;1.60;;;17.50;99.90;;;;;;5040986;28;20604;-80
2022/06/27 00:18:49;;;;;;;3.73;1.90;;;17.50;99.90;;;;;;5056960;28;20233;-79
2022/06/27 00:21:15;;;;;;;2.20;1.60;;;17.50;99.90;;;;;;5039637;28;20191;-80
2022/06/27 00:23:40;;;;;;;5.03;1.90;;;17.40;99.90;;;;;;5039464;28;20175;-80
2022/06/27 00:26:06;;;;;;;3.17;1.87;;;17.40;99.90;;;;;;5057557;28;20210;-80
2022/06/27 00:28:31;;;;;;;2.80;1.50;;;17.40;99.90;;;;;;5057335;28;20171;-79
2022/06/27 00:30:57;;;;;;;3.07;1.90;;;17.50;99.90;;;;;;5057697;28;20172;-80
2022/06/27 00:33:22;;;;;;;3.40;2.37;;;17.50;99.90;;;;;;5042249;28;20279;-78
2022/06/27 00:35:50;;;;;;;1.90;1.67;;;17.40;99.90;;;;;;5051153;28;20286;-78
2022/06/27 00:38:16;;;;;;;3.93;1.70;;;17.40;99.90;;;;;;5068011;28;20194;-79
2022/06/27 00:40:42;;;;;;;3.23;1.80;;;17.40;99.90;;;;;;5058851;28;20203;-79
2022/06/27 00:43:07;;;;;;;2.30;1.87;;;17.40;99.90;;;;;;5056464;28;20167;-79
2022/06/27 00:45:33;;;;;;;4.07;2.07;;;17.40;99.90;;;;;;5056455;28;20211;-78
2022/06/27 00:47:59;;;;;;;2.53;2.10;;;17.30;99.90;;;;;;5038342;28;20179;-80
2022/06/27 00:50:24;;;;;;;5.17;2.07;;;17.40;99.90;;;;;;5038617;28;20214;-79
2022/06/27 00:52:50;;;;;;;2.33;1.73;;;17.30;99.90;;;;;;5058783;28;20180;-79
2022/06/27 00:55:16;;;;;;;4.67;1.80;;;17.30;99.90;;;;;;5061844;28;20195;-79
2022/06/27 00:57:41;;;;;;;3.53;2.33;;;17.30;99.90;;;;;;5044074;28;20199;-79
2022/06/27 01:00:08;;;;;;;2.57;1.90;;;17.30;99.90;;;;;;5058046;28;20246;-80
2022/06/27 01:02:34;;;;;;;2.53;2.20;;;17.30;99.90;;;;;;5056859;28;20179;-80
2022/06/27 01:04:59;;;;;;;2.63;1.57;;;17.30;99.90;;;;;;5056416;28;20211;-79
2022/06/27 01:07:25;;;;;;;3.80;2.00;;;17.30;99.90;;;;;;5056503;28;20183;-79
2022/06/27 01:09:52;;;;;;;4.00;2.03;;;17.30;99.90;;;;;;5056040;28;20641;-81
2022/06/27 01:12:18;;;;;;;5.00;2.10;;;17.30;99.90;;;;;;5056336;28;20221;-81
2022/06/27 01:14:44;;;;;;;2.23;1.73;;;17.20;99.90;;;;;;5056485;28;20607;-79
2022/06/27 01:17:11;;;;;;;3.00;1.87;;;17.20;99.90;;;;;;5056461;28;20211;-81
2022/06/27 01:19:38;;;;;;;2.60;2.10;;;17.20;99.90;;;;;;5038307;28;20215;-78
2022/06/27 01:22:10;;;;;;;3.20;2.50;;;17.20;99.90;;;;;;5056169;28;20184;-80
2022/06/27 01:24:37;;;;;;;4.77;2.87;;;17.30;99.90;;;;;;5058197;28;20209;-80
2022/06/27 01:27:04;;;;;;;4.83;2.10;;;17.30;99.90;;;;;;5038209;28;20180;-80
2022/06/27 01:29:29;;;;;;;4.63;2.40;;;17.30;99.90;;;;;;5037268;28;20183;-78
2022/06/27 01:31:55;;;;;;;2.97;2.67;;;17.30;99.90;;;;;;5037876;28;20179;-78
2022/06/27 01:34:21;;;;;;;4.77;2.33;;;17.30;99.90;;;;;;5055973;28;20172;-80
2022/06/27 01:36:47;;;;;;;3.83;2.63;;;17.40;99.90;;;;;;5055606;28;20692;-80
2022/06/27 01:39:24;;;;;;;2.23;2.03;;;17.30;99.90;;;;;;5055382;28;20203;-78
2022/06/27 01:41:52;;;;;;;7.60;3.30;;;17.30;99.90;;;;;;5037843;28;20168;-81
2022/06/27 01:44:19;;;;;;;3.57;2.27;;;17.30;99.90;;;;;;5055702;28;20183;-79
2022/06/27 01:46:53;;;;;;;2.43;1.90;;;17.30;99.90;;;;;;5055738;28;20648;-79
2022/06/27 01:49:20;;;;;;;4.67;2.30;;;17.30;99.90;;;;;;5037925;28;20187;-80
2022/06/27 01:51:48;;;;;;;3.43;2.07;;;17.30;99.90;;;;;;5054955;28;20552;-81
2022/06/27 01:54:16;;;;;;;4.30;2.40;;;17.30;99.90;;;;;;5055071;28;20229;-81
2022/06/27 01:56:44;;;;;;;2.67;1.90;;;17.30;99.90;;;;;;5054714;28;20658;-80
2022/06/27 01:59:11;;;;;;;5.87;2.30;;;17.30;99.90;;;;;;5055207;28;20578;-80
2022/06/27 02:01:38;;;;;;;2.13;1.90;;;17.30;99.90;;;;;;5054984;28;20260;-79
2022/06/27 02:04:05;;;;;;;2.67;2.10;;;17.30;99.90;;;;;;5055345;28;20180;-80
2022/06/27 02:06:31;;;;;;;4.77;2.03;;;17.30;99.90;;;;;;5038717;28;20203;-80
2022/06/27 02:08:57;;;;;;;3.60;2.20;;;17.30;99.90;;;;;;5040822;28;20188;-80
2022/06/27 02:11:24;;;;;;;3.73;2.10;;;17.30;99.90;;;;;;5059213;28;20270;-80
2022/06/27 02:13:50;;;;;;;5.00;2.33;;;17.30;99.90;;;;;;5058895;28;20538;-79
2022/06/27 02:16:18;;;;;;;7.23;2.17;;;17.30;99.90;;;;;;5058608;28;20236;-80
2022/06/27 02:18:45;;;;;;;6.80;3.73;;;17.30;99.90;;;;;;5040590;28;20176;-80
2022/06/27 02:21:13;;;;;;;4.30;2.70;;;17.30;99.90;;;;;;5058760;28;20225;-81
2022/06/27 02:23:39;;;;;;;5.60;2.57;;;17.30;99.90;;;;;;5059178;28;20226;-79
2022/06/27 02:26:10;;;;;;;6.27;4.50;;;17.30;99.90;;;;;;5058527;28;20184;-79
2022/06/27 02:28:37;;;;;;;4.70;3.40;;;17.30;99.90;;;;;;5058458;28;20652;-79
2022/06/27 02:31:03;;;;;;;4.80;3.70;;;17.30;99.90;;;;;;5041305;28;20184;-80
2022/06/27 02:33:38;;;;;;;8.90;3.50;;;17.30;99.90;;;;;;5040805;28;20222;-81
2022/06/27 02:36:05;;;;;;;5.10;2.83;;;17.40;99.90;;;;;;5057894;28;20266;-79
2022/06/27 02:38:32;;;;;;;4.40;2.53;;;17.40;99.90;;;;;;5058510;28;20178;-79
2022/06/27 02:41:04;;;;;;;9.43;3.23;;;17.40;99.90;;;;;;5058196;28;20199;-80
2022/06/27 02:43:32;;;;;;;4.63;3.30;;;17.40;99.90;;;;;;5040656;28;20163;-79
2022/06/27 02:45:58;;;;;;;3.97;3.30;;;17.40;99.90;;;;;;5057735;22;20231;-77
2022/06/27 02:48:25;;;;;;;4.47;2.93;;;17.40;99.90;;;;;;5037248;28;20178;-78
2022/06/27 02:50:58;;;;;;;7.50;2.97;;;17.40;99.90;;;;;;5037121;28;20164;-75
2022/06/27 02:53:29;;;;;;;3.93;2.57;;;17.40;99.90;;;;;;5034613;28;20554;-75
2022/06/27 02:55:57;;;;;;;3.47;2.40;;;17.30;99.90;;;;;;5035901;28;20205;-75
2022/06/27 02:58:39;;;;;;;4.47;3.10;;;17.40;99.90;;;;;;5036020;28;20169;-75
2022/06/27 03:01:06;;;;;;;5.33;2.87;;;17.30;99.90;;;;;;5035723;28;20192;-75
2022/06/27 03:03:33;;;;;;;6.17;3.60;;;17.30;99.90;;;;;;5035734;28;20583;-75
2022/06/27 03:06:04;;;;;;;5.90;3.83;;;17.40;99.90;;;;;;5017945;28;20239;-75
2022/06/27 03:08:38;;;;;;;6.70;3.47;;;17.30;99.90;;;;;;5017931;28;20157;-75
2022/06/27 03:11:04;;;;;;;5.00;3.43;;;17.30;99.90;;;;;;5017922;28;20202;-75
2022/06/27 03:13:30;;;;;;;8.10;3.40;;;17.40;99.90;;;;;;5035549;28;20187;-75
2022/06/27 03:15:55;;;;;;;8.07;4.90;;;17.50;99.90;;;;;;5035434;28;20192;-75
2022/06/27 03:18:21;;;;;;;4.67;3.20;;;17.30;99.90;;;;;;5035715;28;20646;-75
2022/06/27 03:20:46;;;;;;;3.40;2.97;;;17.30;99.90;;;;;;5035664;28;20231;-75
2022/06/27 03:23:12;;;;;;;5.57;3.30;;;17.40;99.90;;;;;;5035233;28;20169;-75
2022/06/27 03:25:38;;;;;;;3.63;3.13;;;17.30;99.90;;;;;;5035713;28;20630;-76
2022/06/27 03:28:04;;;;;;;6.70;3.13;;;17.30;99.90;;;;;;5017607;28;20206;-75
2022/06/27 03:30:30;;;;;;;4.93;3.10;;;17.40;99.90;;;;;;5035282;28;20297;-75
2022/06/27 03:32:55;;;;;;;5.43;3.20;;;17.40;99.90;;;;;;5035094;28;20176;-75
2022/06/27 03:35:21;;;;;;;5.60;3.37;;;17.30;99.90;;;;;;5035084;28;20267;-76
2022/06/27 03:37:46;;;;;;;4.53;3.40;;;17.30;99.90;;;;;;5017584;28;20211;-75
2022/06/27 03:40:12;;;;;;;6.30;4.43;;;17.30;99.90;;;;;;5035517;28;20669;-75
2022/06/27 03:42:38;;;;;;;6.47;3.73;;;17.30;99.90;;;;;;5017268;28;20207;-75
2022/06/27 03:45:04;;;;;;;5.23;3.10;;;17.30;99.90;;;;;;5034967;28;20176;-75
2022/06/27 03:47:29;;;;;;;6.20;3.50;;;17.30;99.90;;;;;;5017032;28;20732;-75
2022/06/27 03:50:00;;;;;;;5.27;3.87;;;17.40;99.90;;;;;;5017172;28;20222;-75
2022/06/27 03:52:26;;;;;;;8.47;3.03;;;17.30;99.90;;;;;;5035033;28;20164;-75
2022/06/27 03:54:52;;;;;;;5.20;3.70;;;17.40;99.90;;;;;;5035008;28;20180;-75
2022/06/27 03:57:17;;;;;;;4.80;3.17;;;17.40;99.90;;;;;;5034678;28;20196;-75
2022/06/27 03:59:43;;;;;;;9.20;3.90;;;17.40;99.90;;;;;;5016831;28;20226;-74
2022/06/27 04:02:09;;;;;;;6.10;3.50;;;17.40;99.90;;;;;;5016928;28;20245;-75
2022/06/27 04:04:35;;;;;;;3.83;3.13;;;17.40;99.90;;;;;;5016862;28;20227;-75
2022/06/27 04:07:02;;;;;;;6.43;2.80;;;17.40;99.90;;;;;;5016739;28;20196;-75
2022/06/27 04:09:31;;;;;;;7.30;3.07;;;17.40;99.90;;;;;;5016810;28;20561;-76
2022/06/27 04:11:57;;;;;;;5.63;2.80;;;17.30;99.90;;;;;;5034494;28;20176;-75
2022/06/27 04:14:22;;;;;;;6.50;2.53;;;17.30;99.90;;;;;;5034361;28;20654;-74
2022/06/27 04:16:48;;;;;;;3.17;2.47;;;17.30;99.90;;;;;;5034365;28;20200;-75
2022/06/27 04:19:13;;;;;;;4.87;2.70;;;17.40;99.90;;;;;;5035319;28;20196;-78
2022/06/27 04:21:39;;;;;;;4.20;3.33;;;17.30;99.90;;;;;;5036224;28;20576;-78
2022/06/27 04:24:05;;;;;;;5.37;3.70;;;17.30;99.90;;;;;;5035597;28;20650;-78
2022/06/27 04:26:30;;;;;;;5.93;3.53;;;17.20;99.90;;;;;;5017222;28;20192;-78
2022/06/27 04:28:56;;;;;;;5.10;3.20;;;17.30;99.90;;;;;;5034231;28;20176;-75
2022/06/27 04:31:22;;;;;;;5.90;3.67;;;17.20;99.90;;;;;;5035151;28;20161;-78
2022/06/27 04:33:48;;;;;;;4.13;3.60;;;17.20;99.90;;;;;;5034154;28;20211;-76
2022/06/27 04:36:13;;;;;;;6.80;3.90;;;17.20;99.90;;;;;;5016396;28;20273;-76
2022/06/27 04:38:39;;;;;;;6.03;3.97;;;17.20;99.90;;;;;;5016541;28;20179;-77
2022/06/27 04:41:05;;;;;;;4.57;3.17;;;17.20;99.90;;;;;;5033940;28;20200;-76
2022/06/27 04:43:34;;;;;;;4.70;3.20;;;17.20;99.90;;;;;;5033932;28;20226;-76
2022/06/27 04:46:01;;;;;;;3.53;3.10;;;17.20;99.90;;;;;;5033799;28;20200;-76
2022/06/27 04:48:29;;;;;;;5.03;3.30;;;17.20;99.90;;;;;;5034254;28;20239;-77
2022/06/27 04:50:56;;;;;;;3.50;3.20;;;17.20;99.90;;;;;;5016186;28;20188;-77
2022/06/27 04:53:22;;;;;;;3.63;3.23;;;17.20;99.90;;;;;;5015969;28;20207;-77
2022/06/27 04:55:48;;;;;;;6.50;3.70;;;17.20;99.90;;;;;;5033647;28;20200;-77
2022/06/27 04:58:15;;;;;;;5.43;4.33;;;17.20;99.90;;;;;;5016158;28;20654;-77
2022/06/27 05:00:41;;;;;;;5.37;4.60;;;17.20;99.90;;;;;;5033608;28;20678;-77
2022/06/27 05:03:07;;;;;;;6.03;5.30;;;17.20;99.90;;;;;;5015831;28;20218;-77
2022/06/27 05:05:33;;;;;;;6.97;4.67;;;17.20;99.90;;;;;;5033378;28;20192;-77
2022/06/27 05:08:00;;;;;;;6.67;4.70;;;17.20;99.90;;;;;;5015981;28;20176;-77
2022/06/27 05:10:26;;;;;;;5.13;4.13;;;17.20;99.90;;;;;;5033430;28;20182;-77
2022/06/27 05:12:52;;;;;;;7.40;4.60;;;17.20;99.90;;;;;;5033344;28;20256;-77
2022/06/27 05:15:18;;;;;;;5.07;4.47;;;17.20;99.90;;;;;;5033252;28;20172;-78
2022/06/27 05:17:43;;;;;;;4.90;4.23;;;17.30;99.90;;;;;;5033296;28;20169;-77
2022/06/27 05:20:10;;;;;;;5.47;4.57;;;17.30;99.90;;;;;;5033682;28;20200;-77
2022/06/27 05:22:35;;;;;;;7.90;4.10;;;17.30;99.90;;;;;;5033116;28;20302;-77
2022/06/27 05:25:01;;;;;;;4.07;3.67;;;17.40;99.90;;;;;;5015517;28;20263;-77
2022/06/27 05:27:26;;;;;;;6.57;4.07;;;17.40;99.90;;;;;;5033333;28;20199;-75
2022/06/27 05:29:52;;;;;;;4.67;3.80;;;17.50;99.90;;;;;;5033114;28;20180;-77
2022/06/27 05:32:18;;;;;;;12.70;5.07;;;17.40;99.90;;;;;;5033314;28;20172;-76
2022/06/27 05:34:43;;;;;;;7.63;4.43;;;17.50;99.90;;;;;;5033105;28;20315;-75
2022/06/27 05:37:09;;;;;;;6.93;4.23;;;17.50;99.90;;;;;;5032949;28;20249;-76
2022/06/27 05:39:35;;;;;;;5.43;4.90;;;17.60;99.90;;;;;;5032555;28;20297;-76
2022/06/27 05:42:03;;;;;;;6.23;4.03;;;17.50;99.90;;;;;;5014828;28;20176;-76
2022/06/27 05:44:29;;;;;;;5.53;4.60;;;17.60;99.90;;;;;;5032947;28;20172;-76
2022/06/27 05:46:58;;;;;;;6.43;5.77;;;17.60;99.90;;;;;;5014939;28;20219;-76
2022/06/27 05:49:24;;;;;;;6.47;5.23;;;17.60;99.90;;;;;;5032830;28;20187;-76
2022/06/27 05:51:51;;;;;;;7.70;4.80;;;17.70;99.90;;;;;;5015106;28;20272;-76
2022/06/27 05:54:17;;;;;;;6.47;4.47;;;17.70;99.90;;;;;;5015132;28;20180;-76
2022/06/27 05:56:43;;;;;;;7.00;5.43;;;17.70;99.90;;;;;;5015567;28;20196;-76
2022/06/27 05:59:09;;;;;;;8.50;5.87;;;17.80;99.90;;;;;;5032614;28;20716;-76
2022/06/27 06:01:37;;;;;;;10.67;6.77;;;17.80;99.90;;;;;;5015075;28;20172;-76
2022/06/27 06:04:03;;;;;;;6.23;4.80;;;17.70;99.90;;;;;;5014986;28;20177;-76
2022/06/27 06:06:29;;;;;;;7.27;4.87;;;17.70;99.90;;;;;;5032691;28;20193;-76
2022/06/27 06:08:55;;;;;;;7.23;4.63;;;17.70;99.90;;;;;;5032746;28;20176;-76
2022/06/27 06:11:21;;;;;;;6.67;4.50;;;17.70;99.90;;;;;;5033199;28;20243;-76
2022/06/27 06:13:47;;;;;;;8.10;4.70;;;17.80;99.90;;;;;;5015276;28;20231;-76
2022/06/27 06:16:16;;;;;;;8.03;4.57;;;17.80;99.90;;;;;;5014900;28;20755;-75
2022/06/27 06:18:42;;;;;;;6.83;5.03;;;17.70;99.90;;;;;;5032926;28;20165;-75
2022/06/27 06:21:07;;;;;;;7.17;5.13;;;17.70;99.90;;;;;;5014827;28;20282;-77
2022/06/27 06:23:33;;;;;;;9.93;5.43;;;17.70;99.90;;;;;;5032565;28;20171;-76
2022/06/27 06:26:01;;;;;;;5.23;4.73;;;17.80;99.90;;;;;;5014729;28;20188;-75
2022/06/27 06:28:30;;;;;;;8.30;5.57;;;17.80;99.90;;;;;;5014868;28;20176;-76
2022/06/27 06:30:56;;;;;;;7.07;5.87;;;17.90;99.90;;;;;;5014790;28;20188;-75
2022/06/27 06:33:22;;;;;;;7.43;5.90;;;17.90;99.90;;;;;;5032440;28;20562;-76
2022/06/27 06:35:47;;;;;;;6.07;5.43;;;17.90;99.90;;;;;;5014740;28;20192;-75
2022/06/27 06:38:13;;;;;;;6.10;5.20;;;18.00;99.90;;;;;;5032432;28;20678;-75
2022/06/27 06:40:39;;;;;;;7.03;5.13;;;18.10;99.90;;;;;;5032595;28;20204;-76
2022/06/27 06:43:04;;;;;;;10.03;5.70;;;18.10;99.90;;;;;;5014654;28;20259;-76
2022/06/27 06:45:30;;;;;;;6.70;5.80;;;18.20;99.90;;;;;;5032406;28;20252;-75
2022/06/27 06:47:56;;;;;;;6.83;5.80;;;18.20;99.90;;;;;;5032350;28;20164;-76
2022/06/27 06:50:22;;;;;;;6.97;5.47;;;18.20;99.90;;;;;;5032271;28;20177;-76
2022/06/27 06:52:52;;;;;;;6.80;5.80;;;18.20;99.90;;;;;;5017174;28;20181;-75
2022/06/27 06:55:21;;;;;;;6.70;5.70;;;18.20;99.90;;;;;;5036128;28;20204;-77
2022/06/27 06:57:48;;;;;;;7.13;5.37;;;18.30;99.90;;;;;;5036146;28;20204;-77
2022/06/27 07:00:14;;;;;;;6.73;5.03;;;18.30;99.90;;;;;;5035983;28;20203;-77
2022/06/27 07:02:40;;;;;;;8.10;5.57;;;18.30;99.90;;;;;;5035958;28;20175;-77
2022/06/27 07:05:11;;;;;;;10.47;4.87;;;18.30;99.90;;;;;;5036293;28;20169;-78
2022/06/27 07:07:39;;;;;;;6.97;4.57;;;18.30;99.90;;;;;;5018461;28;20196;-79
2022/06/27 07:10:06;;;;;;;6.07;4.37;;;18.40;99.90;;;;;;5036478;28;20748;-78
2022/06/27 07:12:33;;;;;;;6.57;5.53;;;18.40;99.90;;;;;;5018554;28;20247;-78
2022/06/27 07:15:00;;;;;;;7.30;4.37;;;18.50;99.90;;;;;;5036391;28;20202;-79
2022/06/27 07:17:27;;;;;;;5.23;4.60;;;18.60;99.90;;;;;;5018847;28;20270;-79
2022/06/27 07:19:53;;;;;;;5.83;4.43;;;18.70;99.90;;;;;;5036348;28;20192;-78
2022/06/27 07:22:23;;;;;;;5.60;3.70;;;18.70;99.90;;;;;;5036679;28;20168;-78
2022/06/27 07:24:49;;;;;;;6.60;4.50;;;18.80;99.90;;;;;;5017864;28;20172;-77
2022/06/27 07:27:16;;;;;;;8.63;5.20;;;18.80;99.90;;;;;;5017555;28;20192;-77
2022/06/27 07:29:42;;;;;;;6.50;4.90;;;18.80;99.90;;;;;;5035492;28;20168;-77
2022/06/27 07:32:08;;;;;;;5.60;4.80;;;18.90;99.90;;;;;;5035407;28;20183;-77
2022/06/27 07:34:35;;;;;;;5.03;4.53;;;18.90;99.90;;;;;;5034880;28;20183;-77
2022/06/27 07:37:01;;;;;;;4.67;4.17;;;18.80;99.90;;;;;;5034712;28;20196;-77
2022/06/27 07:39:26;;;;;;;6.27;3.90;;;18.80;99.90;;;;;;5016973;28;20208;-77
2022/06/27 07:41:53;;;;;;;5.57;4.60;;;18.90;99.90;;;;;;5034359;28;20190;-79
2022/06/27 07:44:19;;;;;;;5.57;4.63;;;18.90;99.90;;;;;;5016118;28;20172;-77
2022/06/27 07:46:45;;;;;;;6.53;4.53;;;18.90;99.90;;;;;;5034606;28;20294;-77
2022/06/27 07:49:10;;;;;;;6.93;4.47;;;18.90;99.90;;;;;;5034535;28;20200;-77
2022/06/27 07:51:36;;;;;;;7.03;4.43;;;19.00;99.90;;;;;;5016784;28;20180;-77
2022/06/27 07:54:02;;;;;;;5.73;4.20;;;19.00;99.90;;;;;;5034601;28;20662;-77
2022/06/27 07:56:28;;;;;;;6.33;4.20;;;19.00;99.90;;;;;;5034355;28;20231;-77
2022/06/27 07:58:54;;;;;;;5.83;4.37;;;19.10;99.90;;;;;;5034443;28;20203;-77
2022/06/27 08:01:20;;;;;;;7.43;5.17;;;19.20;99.90;;;;;;5034624;28;20211;-77
2022/06/27 08:03:49;;;;;;;6.17;4.40;;;19.30;99.90;;;;;;5033655;28;20603;-77
2022/06/27 08:06:19;;;;;;;4.97;4.17;;;19.30;99.90;;;;;;5034256;28;20192;-77
2022/06/27 08:08:47;;;;;;;5.20;4.03;;;19.40;99.90;;;;;;5034242;28;20173;-77
2022/06/27 08:11:18;;;;;;;4.90;4.40;;;19.40;99.90;;;;;;5034218;28;20191;-77
2022/06/27 08:13:45;;;;;;;5.60;4.97;;;19.40;99.90;;;;;;5034101;28;20243;-77
2022/06/27 08:16:14;;;;;;;6.83;4.10;;;19.40;99.90;;;;;;5033998;28;20191;-77
2022/06/27 08:18:42;;;;;;;5.10;4.60;;;19.40;99.90;;;;;;5016270;28;20176;-77
2022/06/27 08:21:08;;;;;;;6.83;3.97;;;19.40;99.90;;;;;;5033884;28;20204;-77
2022/06/27 08:23:36;;;;;;;6.47;5.10;;;19.40;99.90;;;;;;5016122;28;20662;-77
2022/06/27 08:26:04;;;;;;;5.30;4.47;;;19.40;99.90;;;;;;5033817;28;20252;-76
2022/06/27 08:28:30;;;;;;;6.63;4.03;;;19.30;99.90;;;;;;5033852;28;20230;-77
2022/06/27 08:30:57;;;;;;;7.13;4.40;;;19.30;99.90;;;;;;5033852;28;20255;-77
2022/06/27 08:33:23;;;;;;;5.27;3.73;;;19.30;99.90;;;;;;5015860;28;20181;-77
2022/06/27 08:35:49;;;;;;;7.17;4.67;;;19.20;99.90;;;;;;5015784;28;20279;-77
2022/06/27 08:38:17;;;;;;;6.73;5.00;;;19.20;99.90;;;;;;5033913;28;20661;-77
2022/06/27 08:40:42;;;;;;;5.67;4.50;;;19.10;99.90;;;;;;5033781;28;20597;-77
2022/06/27 08:43:11;;;;;;;5.90;4.63;;;19.10;99.90;;;;;;5015744;28;20176;-77
2022/06/27 08:45:37;;;;;;;9.37;5.47;;;19.20;99.90;;;;;;5033410;28;20195;-77
2022/06/27 08:48:07;;;;;;;6.53;5.93;;;19.10;99.90;;;;;;5015876;28;20550;-77
2022/06/27 08:50:36;;;;;;;7.67;5.83;;;19.10;99.90;;;;;;5015875;28;20681;-76
2022/06/27 08:53:03;;;;;;;5.53;4.30;;;19.00;99.90;;;;;;5033749;28;20191;-77
2022/06/27 08:55:31;;;;;;;5.57;3.90;;;19.00;99.90;;;;;;5033495;28;20214;-77
2022/06/27 08:58:04;;;;;;;5.60;3.47;;;19.00;99.90;;;;;;5015731;28;20180;-77
2022/06/27 09:00:41;;;;;;;4.00;2.80;;;19.00;99.90;;;;;;5033702;28;20199;-77
2022/06/27 09:03:07;;;;;;;3.27;2.97;;;19.00;99.90;;;;;;5034271;28;20149;-77
2022/06/27 09:05:34;;;;;;;5.20;3.40;;;19.10;99.90;;;;;;5015874;28;20221;-77
2022/06/27 09:08:05;;;;;;;7.27;3.60;;;19.10;99.90;;;;;;5016433;28;20226;-77
2022/06/27 09:10:42;;;;;;;5.07;2.73;;;19.10;99.90;;;;;;5033876;28;20165;-77
2022/06/27 09:13:11;;;;;;;5.40;4.60;;;19.10;99.90;;;;;;5017114;28;20180;-77
2022/06/27 09:15:44;;;;;;;4.60;3.80;;;19.10;99.90;;;;;;5035019;28;20218;-77
2022/06/27 09:18:16;;;;;;;5.70;4.00;;;19.10;99.90;;;;;;5035057;28;20729;-77
2022/06/27 09:21:13;;;;;;;5.83;3.73;;;19.10;99.90;;;;;;5034595;28;20203;-77
2022/06/27 09:23:51;;;;;;;4.43;4.00;;;19.20;99.90;;;;;;5033803;28;20262;-77
2022/06/27 09:26:28;;;;;;;6.30;4.93;;;19.20;99.90;;;;;;5015177;28;20227;-77
2022/06/27 09:29:11;;;;;;;8.77;5.80;;;19.20;99.90;;;;;;5032624;28;20152;-79
2022/06/27 09:31:42;;;;;;;10.37;5.90;;;19.20;99.90;;;;;;5032054;28;20697;-78
2022/06/27 09:34:09;;;;;;;8.70;6.53;;;19.30;99.90;;;;;;5015077;28;20650;-77
2022/06/27 09:36:41;;;;;;;8.87;6.00;;;19.30;99.90;;;;;;5032890;28;20185;-77
2022/06/27 09:39:16;;;;;;;11.87;5.83;;;19.40;99.90;;;;;;5032745;28;20307;-77
2022/06/27 09:41:45;;;;;;;11.07;5.73;;;19.40;99.90;;;;;;5032795;28;20159;-77
2022/06/27 09:44:15;;;;;;;9.23;6.13;;;19.50;99.90;;;;;;5015018;28;20172;-77
2022/06/27 09:46:44;;;;;;;16.10;7.00;;;19.60;99.90;;;;;;5014748;28;20208;-77
2022/06/27 09:49:15;;;;;;;10.53;6.13;;;19.60;99.90;;;;;;5015715;28;20568;-77
2022/06/27 09:51:42;;;;;;;8.73;7.17;;;19.70;99.90;;;;;;5014970;28;20249;-77
2022/06/27 09:54:11;;;;;;;16.03;8.27;;;19.80;99.90;;;;;;5032527;28;20168;-77
2022/06/27 09:56:39;;;;;;;8.97;6.97;;;19.80;99.90;;;;;;5014896;28;20623;-77
2022/06/27 09:59:08;;;;;;;11.60;9.23;;;19.80;99.90;;;;;;5015315;28;20259;-77
2022/06/27 10:01:34;;;;;;;12.63;9.20;;;20.00;99.90;;;;;;5032678;28;20192;-75
2022/06/27 10:04:01;;;;;;;12.53;8.37;;;20.00;99.90;;;;;;5014987;28;20191;-76
2022/06/27 10:06:29;;;;;;;14.17;8.13;;;20.00;99.90;;;;;;5033751;28;20192;-77
2022/06/27 10:08:55;;;;;;;11.57;8.00;;;20.20;99.90;;;;;;5032788;28;20169;-76
2022/06/27 10:11:20;;;;;;;11.60;7.40;;;20.20;99.90;;;;;;5032447;28;20169;-76
2022/06/27 10:14:18;;;;;;;9.63;7.67;;;20.30;99.90;;;;;;5014754;28;20172;-76
2022/06/27 10:16:55;;;;;;;10.83;7.97;;;20.40;99.90;;;;;;5032585;28;20192;-76
2022/06/27 10:19:25;;;;;;;12.13;8.63;;;20.40;99.90;;;;;;5032512;28;20199;-76
2022/06/27 10:21:51;;;;;;;13.77;7.90;;;20.40;99.90;;;;;;5014667;28;20214;-76
2022/06/27 10:24:26;;;;;;;10.33;8.33;;;20.50;99.90;;;;;;5014338;28;20226;-76
2022/06/27 10:27:02;;;;;;;10.30;8.63;;;20.50;99.90;;;;;;5033552;28;20588;-76
2022/06/27 10:29:28;;;;;;;11.87;7.70;;;20.50;99.90;;;;;;5036419;28;20180;-76
2022/06/27 10:31:54;;;;;;;9.67;8.00;;;20.50;99.90;;;;;;5018522;28;20243;-75
2022/06/27 10:34:37;;;;;;;9.70;7.93;;;20.50;99.90;;;;;;5036283;28;20231;-75
2022/06/27 10:37:24;;;;;;;9.43;7.90;;;20.50;99.90;;;;;;5036415;28;20662;-75
2022/06/27 10:39:53;;;;;;;10.73;8.10;;;20.50;99.90;;;;;;5018405;28;20200;-75
2022/06/27 10:42:51;;;;;;;11.03;8.07;;;20.40;99.90;;;;;;5035992;28;20555;-75
2022/06/27 10:45:19;;;;;;;10.57;7.00;;;20.40;99.90;;;;;;5036136;28;20187;-75
2022/06/27 10:47:48;;;;;;;12.13;7.50;;;20.30;99.90;;;;;;5036494;28;20177;-75
2022/06/27 10:50:20;;;;;;;10.47;6.57;;;20.20;99.90;;;;;;5035992;28;20240;-75
2022/06/27 10:52:46;;;;;;;8.90;6.00;;;20.20;99.90;;;;;;5036092;28;20195;-75
2022/06/27 10:55:26;;;;;;;8.47;5.93;;;20.20;99.90;;;;;;5018635;28;20234;-75
2022/06/27 10:57:54;;;;;;;7.97;5.00;;;20.10;99.90;;;;;;5018133;28;20263;-75
2022/06/27 11:00:40;;;;;;;8.07;4.30;;;20.10;99.90;;;;;;5035661;28;20207;-75
2022/06/27 11:03:20;;;;;;;5.23;4.10;;;20.00;99.90;;;;;;5017802;28;20176;-75
2022/06/27 11:05:52;;;;;;;6.60;4.50;;;20.10;61.90;;;;;;5035792;28;20188;-75
2022/06/27 11:08:19;;;;;;;5.93;4.40;;;20.00;1.00;;;;;;5035613;28;20215;-75
2022/06/27 11:10:45;;;;;;;6.73;4.40;;;20.00;99.90;;;;;;5017774;28;20179;-75
2022/06/27 11:13:11;;;;;;;8.93;4.57;;;20.00;99.90;;;;;;5035453;28;20549;-75
2022/06/27 11:15:36;;;;;;;7.17;5.27;;;20.00;99.90;;;;;;5017499;28;20196;-75
2022/06/27 11:18:08;;;;;;;7.20;4.90;;;20.00;1.00;;;;;;5017631;28;20172;-75
2022/06/27 11:20:34;;;;;;;7.10;4.30;;;20.10;1.00;;;;;;5017594;28;20196;-74
2022/06/27 11:23:01;;;;;;;9.13;5.27;;;20.10;1.00;;;;;;5035486;28;20168;-75
2022/06/27 11:25:28;;;;;;;6.67;5.63;;;20.20;1.00;;;;;;5035258;28;20186;-75
2022/06/27 11:31:57;;;;;;;10.40;5.03;;;20.10;1.00;;;;;;5035377;28;20187;-75
2022/06/27 11:33:33;;;;;;;9.23;6.70;;;20.20;1.00;;;;;;5035186;28;20214;-75
2022/06/27 11:35:59;;;;;;;8.97;5.47;;;20.20;99.90;;;;;;5017260;28;20228;-75
2022/06/27 11:38:27;;;;;;;6.97;5.37;;;20.30;1.00;;;;;;5033733;28;20176;-75
2022/06/27 11:41:00;;;;;;;7.33;5.30;;;20.30;1.00;;;;;;5035240;28;20203;-75
2022/06/27 11:44:07;;;;;;;8.37;5.57;;;20.30;1.00;;;;;;5017292;28;20658;-76
2022/06/27 11:46:35;;;;;;;5.57;5.00;;;20.20;1.00;;;;;;4954601;29;20270;-75
2022/06/27 11:49:07;;;;;;;8.27;6.13;;;20.20;52.50;;;;;;4954790;29;20171;-75
2022/06/27 11:51:37;;;;;;;7.73;5.80;;;20.30;99.90;;;;;;4998279;28;20185;-74
2022/06/27 11:54:10;;;;;;;12.27;5.83;;;20.30;1.00;;;;;;5034895;28;20149;-75
2022/06/27 11:56:42;;;;;;;8.13;6.00;;;20.30;99.90;;;;;;5034679;28;20215;-75
2022/06/27 11:59:10;;;;;;;9.03;5.67;;;20.40;99.90;;;;;;5034568;28;20163;-75
2022/06/27 12:02:00;;;;;;;7.80;6.17;;;20.40;1.00;;;;;;5034997;28;20616;-75
2022/06/27 12:04:33;;;;;;;7.10;6.00;;;20.50;99.90;;;;;;5034764;28;20179;-75
2022/06/27 12:07:07;;;;;;;9.23;7.67;;;20.70;99.90;;;;;;5034442;28;20670;-75
2022/06/27 12:09:48;;;;;;;9.53;7.13;;;20.70;1.00;;;;;;5034580;28;20156;-75
2022/06/27 12:12:21;;;;;;;12.47;8.20;;;20.80;1.00;;;;;;5034675;28;20509;-75
2022/06/27 12:14:49;;;;;;;13.37;8.07;;;20.80;99.90;;;;;;5034339;28;20178;-75
2022/06/27 12:17:15;;;;;;;9.63;7.50;;;20.80;1.00;;;;;;5016394;28;20192;-75
2022/06/27 12:19:41;;;;;;;14.20;9.33;;;20.90;99.90;;;;;;5034111;28;20231;-75
2022/06/27 12:22:21;;;;;;;10.40;9.30;;;20.90;1.00;;;;;;5034213;28;20177;-75
2022/06/27 12:24:46;;;;;;;13.00;9.43;;;20.80;1.00;;;;;;5034298;28;20211;-75
2022/06/27 12:27:12;;;;;;;10.30;8.80;;;20.70;99.90;;;;;;5016424;28;20193;-76
2022/06/27 12:29:38;;;;;;;13.60;10.40;;;20.70;99.90;;;;;;5016426;28;20180;-75
2022/06/27 12:32:04;;;;;;;14.17;10.90;;;20.80;1.00;;;;;;5016405;28;20179;-75
2022/06/27 12:34:31;;;;;;;12.27;11.07;;;20.80;1.00;;;;;;5016509;28;20180;-76
2022/06/27 12:36:57;;;;;;;14.00;11.83;;;20.80;1.00;;;;;;5034068;28;20736;-75
2022/06/27 12:39:23;;;;;;;13.93;10.97;;;20.90;1.00;;;;;;5034153;28;20164;-75
2022/06/27 12:41:49;;;;;;;12.50;11.23;;;20.90;1.00;;;;;;5033873;28;20195;-75
2022/06/27 12:44:15;;;;;;;14.37;11.00;;;21.10;99.90;;;;;;5016193;28;20725;-75
2022/06/27 12:46:41;;;;;;;12.30;10.50;;;21.20;99.90;;;;;;5033664;28;20302;-75
2022/06/27 12:49:06;;;;;;;11.37;10.10;;;21.30;99.90;;;;;;5033615;28;20234;-75
2022/06/27 12:51:32;;;;;;;10.23;9.03;;;21.40;1.00;;;;;;5033760;28;20168;-75
2022/06/27 12:53:59;;;;;;;11.63;9.60;;;21.50;40.30;;;;;;5033709;28;20262;-75